Time;durP1;ratioP1;P1;durP2;ratioP2;P2;SDS_P1;SDS_P2;PMS_P1;PMS_P2;Temp;Humidity;BMP_temperature;BMP_pressure;BME280_temperature;BME280_humidity;BME280_pressure;Samples;Min_cycle;Max_cycle;Signal;HPM_P1;HPM_P2
2021/04/28 10:17:40;;;;;;;4.93;3.35;;;;;;;16.58;23.63;99470.34;4564289;27;20204;-89
2021/04/28 10:20:09;;;;;;;6.75;4.20;;;;;;;16.52;24.48;99460.16;4360204;32;35051;-90
2021/04/28 10:22:36;;;;;;;8.25;3.50;;;;;;;16.27;24.65;99470.88;4372985;32;34891;-89
2021/04/28 10:25:07;;;;;;;5.82;3.08;;;;;;;16.78;23.47;99458.25;4357240;32;33014;-89
2021/04/28 10:27:37;;;;;;;6.75;3.50;;;;;;;16.96;22.93;99448.03;4355715;32;34762;-89
2021/04/28 10:30:06;;;;;;;7.05;3.60;;;;;;;16.45;24.78;99460.72;4343484;32;34845;-90
2021/04/28 10:32:44;;;;;;;11.32;3.80;;;;;;;16.76;24.50;99451.31;4352964;32;35036;-89
2021/04/28 10:35:22;;;;;;;8.30;4.12;;;;;;;16.19;24.84;99458.16;4342320;32;33799;-90
2021/04/28 10:38:06;;;;;;;5.47;3.42;;;;;;;16.34;25.55;99448.19;4339200;32;33748;-89
2021/04/28 10:40:57;;;;;;;7.60;3.85;;;;;;;16.67;24.06;99438.66;4352195;32;34388;-91
2021/04/28 10:43:38;;;;;;;7.03;3.78;;;;;;;16.30;27.51;99436.03;4365257;32;35139;-90
2021/04/28 10:46:23;;;;;;;6.28;3.75;;;;;;;16.57;26.35;99441.16;4351321;32;32943;-89
2021/04/28 10:49:33;;;;;;;6.60;3.40;;;;;;;16.97;23.50;99428.38;4353182;32;34338;-90
2021/04/28 10:52:38;;;;;;;5.40;3.75;;;;;;;16.73;25.57;99439.06;4334922;32;34004;-90
2021/04/28 10:55:55;;;;;;;6.07;3.33;;;;;;;16.72;27.45;99432.06;4352672;32;34628;-90
2021/04/28 10:58:30;;;;;;;7.07;3.50;;;;;;;17.19;27.34;99440.94;4352767;32;34039;-89
2021/04/28 11:01:29;;;;;;;6.12;3.62;;;;;;;17.59;24.47;99428.00;4338967;32;34118;-90
2021/04/28 11:04:14;;;;;;;8.52;3.50;;;;;;;17.44;24.92;99429.22;4340688;32;34976;-90
2021/04/28 11:06:50;;;;;;;5.78;3.65;;;;;;;17.54;26.29;99434.69;4353412;32;34246;-90
2021/04/28 11:09:49;;;;;;;6.32;3.42;;;;;;;17.69;25.38;99416.59;4339533;32;32416;-90
2021/04/28 11:12:23;;;;;;;5.40;2.97;;;;;;;17.58;24.55;99425.47;4340397;32;35234;-90
2021/04/28 11:14:52;;;;;;;4.03;3.15;;;;;;;18.20;23.92;99424.13;4339489;32;35260;-90
2021/04/28 11:17:30;;;;;;;10.40;3.72;;;;;;;17.79;26.44;99430.94;4335026;32;32975;-90
2021/04/28 11:20:38;;;;;;;4.62;3.62;;;;;;;17.95;24.94;99411.91;4348049;32;33195;-89
2021/04/28 11:23:29;;;;;;;7.47;4.05;;;;;;;18.30;23.62;99409.03;4350514;32;34488;-90
2021/04/28 11:26:34;;;;;;;5.03;3.22;;;;;;;17.59;24.32;99403.97;4335942;32;35672;-90
2021/04/28 11:29:07;;;;;;;7.10;3.70;;;;;;;18.21;25.04;99407.09;4355013;32;33370;-91
2021/04/28 11:31:57;;;;;;;6.93;3.70;;;;;;;18.16;23.95;99411.00;4334547;32;32222;-90
2021/04/28 11:34:30;;;;;;;4.75;3.37;;;;;;;18.83;22.32;99393.91;4348995;32;33883;-90
2021/04/28 11:40:28;;;;;;;5.55;3.25;;;;;;;18.29;25.50;99400.16;4348016;32;34784;-91
2021/04/28 11:43:15;;;;;;;13.50;4.72;;;;;;;18.75;24.56;99396.34;4351268;32;32683;-91
2021/04/28 11:46:10;;;;;;;7.62;3.75;;;;;;;18.94;23.93;99390.31;4350821;32;35232;-91
2021/04/28 11:49:05;;;;;;;9.38;3.85;;;;;;;19.24;22.96;99381.50;4350130;32;34054;-92
2021/04/28 11:51:56;;;;;;;6.60;3.87;;;;;;;19.48;26.16;99380.34;4349104;32;32158;-90
2021/04/28 11:54:26;;;;;;;6.95;3.80;;;;;;;19.63;22.00;99377.22;4352133;32;32904;-91
2021/04/28 11:57:03;;;;;;;7.12;3.60;;;;;;;19.48;23.27;99373.16;4334085;32;32767;-91
2021/04/28 11:59:41;;;;;;;5.78;3.85;;;;;;;20.13;22.14;99365.62;4318820;32;34086;-90
2021/04/28 12:02:17;;;;;;;7.28;3.78;;;;;;;19.71;23.68;99367.66;4354366;32;32972;-90
2021/04/28 12:04:55;;;;;;;;;;;;;;;19.95;23.91;99378.88;4352587;32;35161;-91
2021/04/28 12:07:36;;;;;;;8.65;4.10;;;;;;;19.82;23.70;99367.53;4358686;32;34178;-90
2021/04/28 12:10:41;;;;;;;9.23;3.92;;;;;;;19.79;22.59;99376.69;4342112;32;33445;-91
2021/04/28 12:13:24;;;;;;;4.25;3.58;;;;;;;20.02;25.09;99371.97;4369031;32;34013;-91
2021/04/28 12:15:59;;;;;;;6.80;4.25;;;;;;;19.42;25.60;99371.03;4355545;32;32110;-91
2021/04/28 12:18:44;;;;;;;6.97;3.85;;;;;;;20.03;23.71;99354.06;4345564;32;35009;-91
2021/04/28 12:21:35;;;;;;;6.47;3.75;;;;;;;20.12;22.03;99364.78;4346269;32;34416;-91
2021/04/28 12:24:52;;;;;;;6.30;3.65;;;;;;;20.15;23.25;99363.69;4346317;32;33769;-91
2021/04/28 12:27:51;;;;;;;5.82;3.55;;;;;;;19.97;22.26;99344.72;4339873;32;35740;-91
2021/04/28 12:30:32;;;;;;;9.70;3.78;;;;;;;20.51;22.36;99340.75;4345395;32;33047;-90
2021/04/28 12:33:26;;;;;;;6.55;3.70;;;;;;;20.16;23.05;99336.72;4344845;32;35739;-90
2021/04/28 12:35:58;;;;;;;7.97;4.53;;;;;;;19.51;29.13;99348.78;4345577;32;33906;-91
2021/04/28 12:38:45;;;;;;;5.82;3.87;;;;;;;19.74;23.58;99344.09;4350759;32;33846;-92
2021/04/28 12:41:22;;;;;;;5.53;4.07;;;;;;;20.19;24.88;99331.09;4332092;32;37022;-91
2021/04/28 12:43:58;;;;;;;6.83;4.07;;;;;;;20.52;25.50;99336.22;4339357;32;33406;-90
2021/04/28 12:46:30;;;;;;;10.95;3.87;;;;;;;20.81;22.06;99326.31;4346592;32;34988;-90
2021/04/28 12:49:04;;;;;;;6.43;3.42;;;;;;;20.30;23.63;99326.59;4358171;32;32796;-91
2021/04/28 12:51:46;;;;;;;7.05;4.62;;;;;;;19.56;23.98;99322.47;4352408;32;34698;-90
2021/04/28 12:54:31;;;;;;;5.00;3.53;;;;;;;20.17;24.13;99310.75;4352243;32;32825;-92
2021/04/28 12:57:16;;;;;;;5.60;3.80;;;;;;;20.57;25.48;99307.97;4350269;32;34495;-91
2021/04/28 12:59:44;;;;;;;5.70;3.22;;;;;;;20.15;25.04;99310.91;4340436;32;34048;-91
2021/04/28 13:02:21;;;;;;;11.25;4.50;;;;;;;20.46;25.26;99300.03;4342910;32;32920;-92
2021/04/28 13:05:30;;;;;;;8.98;3.70;;;;;;;20.92;23.06;99304.66;4354751;32;35686;-91
2021/04/28 13:08:41;;;;;;;5.65;3.70;;;;;;;20.10;26.71;99310.50;4343686;32;32932;-92
2021/04/28 13:11:22;;;;;;;7.28;3.95;;;;;;;20.23;24.66;99315.59;4357729;32;33393;-92
2021/04/28 13:14:22;;;;;;;5.57;3.87;;;;;;;19.91;27.04;99315.81;4341740;32;34242;-93
2021/04/28 13:16:50;;;;;;;6.57;4.37;;;;;;;20.50;26.62;99306.00;4353185;32;32628;-91
2021/04/28 13:19:24;;;;;;;5.65;3.97;;;;;;;20.11;26.30;99300.63;4345587;32;35032;-91
2021/04/28 13:22:03;;;;;;;4.68;3.30;;;;;;;19.89;27.42;99307.94;4333770;32;32569;-92
2021/04/28 13:24:49;;;;;;;7.25;3.37;;;;;;;20.62;26.75;99294.16;4349030;32;35190;-91
2021/04/28 13:27:28;;;;;;;8.80;4.87;;;;;;;20.82;27.30;99294.94;4360046;32;32725;-90
2021/04/28 13:30:05;;;;;;;9.60;3.78;;;;;;;20.86;26.42;99285.63;4344959;32;32726;-92
2021/04/28 13:32:48;;;;;;;7.70;3.62;;;;;;;21.08;24.95;99289.78;4359701;32;34248;-91
2021/04/28 13:35:44;;;;;;;6.62;4.15;;;;;;;20.31;26.58;99290.72;4357765;32;33035;-91
2021/04/28 13:38:24;;;;;;;12.93;4.10;;;;;;;20.63;26.04;99274.38;4359884;32;36386;-93
2021/04/28 13:40:59;;;;;;;8.48;4.60;;;;;;;20.07;28.83;99281.28;4338124;32;34552;-92
2021/04/28 13:43:44;;;;;;;7.85;3.62;;;;;;;20.02;27.50;99275.50;4355606;32;34197;-92
2021/04/28 13:46:32;;;;;;;6.45;3.28;;;;;;;20.40;30.74;99268.44;4359724;32;32999;-93
2021/04/28 13:49:14;;;;;;;9.00;3.78;;;;;;;20.33;29.18;99270.84;4354575;32;33359;-93
2021/04/28 13:52:45;;;;;;;8.18;3.80;;;;;;;19.98;28.67;99276.75;4351724;32;33036;-93
2021/04/28 13:55:29;;;;;;;8.00;4.53;;;;;;;19.65;29.90;99280.66;4336528;32;32384;-93
2021/04/28 13:58:38;;;;;;;9.82;4.35;;;;;;;19.64;30.17;99273.59;4346356;32;20147;-90
2021/04/28 14:01:05;;;;;;;7.97;3.95;;;;;;;19.74;31.59;99274.47;4334858;33;35287;-90
2021/04/28 14:03:33;;;;;;;8.18;4.07;;;;;;;20.19;30.24;99266.75;4348991;32;33817;-90
2021/04/28 14:06:02;;;;;;;10.93;4.05;;;;;;;20.16;30.54;99264.34;4342974;32;34023;-89
2021/04/28 14:08:29;;;;;;;11.30;4.45;;;;;;;19.73;30.29;99259.38;4356458;32;33806;-89
2021/04/28 14:10:57;;;;;;;7.75;4.07;;;;;;;19.74;31.78;99265.59;4355101;32;35714;-90
2021/04/28 14:13:24;;;;;;;15.38;4.65;;;;;;;19.87;30.69;99263.50;4352636;32;34148;-90
2021/04/28 14:15:51;;;;;;;8.93;4.28;;;;;;;19.93;30.43;99250.38;4353858;32;32187;-90
2021/04/28 14:18:18;;;;;;;8.18;3.65;;;;;;;19.66;30.78;99255.56;4357617;32;33696;-89
2021/04/28 14:20:46;;;;;;;9.13;4.10;;;;;;;19.95;31.71;99252.94;4350756;32;35007;-90
2021/04/28 14:23:13;;;;;;;8.57;3.75;;;;;;;19.93;33.39;99252.22;4351589;32;34291;-90
2021/04/28 14:25:41;;;;;;;9.00;3.90;;;;;;;19.66;32.22;99247.53;4345233;32;32367;-89
2021/04/28 14:28:09;;;;;;;9.00;3.37;;;;;;;19.45;34.56;99256.47;4340344;32;33966;-90
2021/04/28 14:30:37;;;;;;;9.18;3.97;;;;;;;19.36;34.09;99261.78;4356311;32;34421;-89
2021/04/28 14:33:05;;;;;;;4.43;3.37;;;;;;;19.21;34.88;99252.44;4355625;32;34313;-91
2021/04/28 14:35:33;;;;;;;5.82;3.47;;;;;;;19.12;34.40;99257.59;4344751;32;31613;-90
2021/04/28 14:38:00;;;;;;;8.40;3.83;;;;;;;19.48;34.15;99252.69;4353948;32;34271;-90
2021/04/28 14:40:28;;;;;;;8.45;3.75;;;;;;;19.32;34.56;99249.66;4338431;32;33608;-89
2021/04/28 14:42:55;;;;;;;5.25;3.72;;;;;;;19.19;34.62;99256.09;4358790;32;34594;-90
2021/04/28 14:45:22;;;;;;;8.20;4.50;;;;;;;19.08;36.30;99241.97;4350995;32;33121;-90
2021/04/28 14:47:50;;;;;;;6.62;3.33;;;;;;;19.30;35.03;99247.13;4337468;33;34113;-90
2021/04/28 14:50:18;;;;;;;5.95;3.53;;;;;;;19.24;36.21;99252.19;4345369;32;34549;-90
2021/04/28 14:52:46;;;;;;;6.10;3.75;;;;;;;19.04;36.08;99249.44;4336350;32;33938;-90
2021/04/28 14:55:13;;;;;;;7.97;3.50;;;;;;;19.24;35.93;99241.47;4354166;32;34352;-90
2021/04/28 14:57:41;;;;;;;10.38;3.97;;;;;;;19.39;35.70;99242.78;4340259;32;35383;-90
2021/04/28 15:00:08;;;;;;;11.00;3.87;;;;;;;19.16;36.14;99240.31;4340502;32;34695;-90
2021/04/28 15:02:36;;;;;;;6.28;4.15;;;;;;;19.18;36.38;99235.69;4334924;33;34158;-90
2021/04/28 15:05:05;;;;;;;9.05;4.40;;;;;;;19.01;36.21;99230.13;4342606;33;32755;-90
2021/04/28 15:07:33;;;;;;;10.10;5.10;;;;;;;19.24;36.86;99236.97;4342422;32;33365;-90
2021/04/28 15:10:02;;;;;;;6.10;4.18;;;;;;;18.55;37.65;99234.91;4334444;32;33675;-90
2021/04/28 15:12:29;;;;;;;9.82;5.32;;;;;;;19.00;35.91;99237.31;4359986;32;34067;-90
2021/04/28 15:14:56;;;;;;;8.45;4.82;;;;;;;19.26;34.68;99226.97;4358501;32;33594;-90
2021/04/28 15:17:24;;;;;;;11.75;5.53;;;;;;;18.53;37.14;99236.88;4351101;32;34873;-90
2021/04/28 15:19:51;;;;;;;9.85;4.28;;;;;;;19.08;35.00;99232.09;4348590;32;34262;-90
2021/04/28 15:22:18;;;;;;;8.73;4.18;;;;;;;18.08;39.43;99237.09;4336480;32;35051;-89
2021/04/28 15:24:47;;;;;;;7.82;4.20;;;;;;;18.07;38.83;99232.72;4344344;32;34492;-89
2021/04/28 15:27:14;;;;;;;7.50;4.43;;;;;;;17.85;38.85;99230.16;4343482;32;34478;-90
2021/04/28 15:29:41;;;;;;;7.93;4.80;;;;;;;18.34;38.13;99228.72;4339486;33;34554;-89
2021/04/28 15:32:11;;;;;;;19.35;4.85;;;;;;;17.94;39.23;99234.72;4352985;32;34872;-90
2021/04/28 15:34:38;;;;;;;15.18;4.65;;;;;;;17.54;40.11;99229.97;4352891;32;33125;-90
2021/04/28 15:37:05;;;;;;;10.75;4.43;;;;;;;18.14;38.65;99220.56;4349131;32;32791;-90
2021/04/28 15:39:36;;;;;;;11.02;4.45;;;;;;;18.10;38.51;99219.12;4349042;32;33652;-90
2021/04/28 15:42:04;;;;;;;10.43;5.25;;;;;;;18.58;37.91;99217.75;4336418;32;34141;-89
2021/04/28 15:44:34;;;;;;;9.52;4.82;;;;;;;18.14;39.06;99231.25;4353471;32;33760;-90
2021/04/28 15:47:02;;;;;;;8.52;5.50;;;;;;;17.90;39.78;99223.47;4338030;32;33792;-90
2021/04/28 15:49:31;;;;;;;11.10;5.87;;;;;;;17.84;40.51;99223.97;4347809;32;33399;-90
2021/04/28 15:51:58;;;;;;;12.43;6.60;;;;;;;17.77;40.85;99233.47;4344481;32;33362;-89
2021/04/28 15:54:26;;;;;;;15.93;6.28;;;;;;;17.68;41.69;99231.53;4332210;33;34405;-90
2021/04/28 15:56:54;;;;;;;11.77;6.72;;;;;;;17.73;42.28;99226.69;4350896;32;34021;-89
2021/04/28 15:59:21;;;;;;;12.70;7.10;;;;;;;17.40;42.78;99238.25;4347480;32;34140;-90
2021/04/28 16:01:49;;;;;;;10.07;6.07;;;;;;;17.63;42.36;99231.91;4353104;32;36131;-89
2021/04/28 16:04:16;;;;;;;14.77;7.57;;;;;;;17.54;42.90;99226.47;4334144;33;33306;-90
2021/04/28 16:06:43;;;;;;;10.50;6.28;;;;;;;17.38;42.79;99221.53;4335780;32;34589;-91
2021/04/28 16:09:13;;;;;;;14.60;6.82;;;;;;;17.45;43.20;99227.22;4328005;32;35187;-89
2021/04/28 16:11:41;;;;;;;17.25;7.28;;;;;;;17.21;43.74;99232.72;4343840;32;34480;-90
2021/04/28 16:14:08;;;;;;;13.25;6.45;;;;;;;17.00;43.92;99228.12;4345586;32;34813;-90
2021/04/28 16:16:35;;;;;;;19.92;7.57;;;;;;;17.28;44.00;99233.91;4347188;32;33888;-90
2021/04/28 16:19:03;;;;;;;12.15;7.07;;;;;;;16.97;44.60;99232.84;4352918;32;34340;-90
2021/04/28 16:21:30;;;;;;;23.70;7.53;;;;;;;17.33;43.78;99229.91;4351527;32;35571;-90
2021/04/28 16:23:58;;;;;;;13.00;7.60;;;;;;;17.52;43.45;99223.06;4337622;32;33622;-90
2021/04/28 16:26:25;;;;;;;19.17;10.23;;;;;;;17.67;43.31;99217.31;4321460;32;35459;-90
2021/04/28 16:28:52;;;;;;;17.42;8.60;;;;;;;17.47;43.32;99223.47;4344260;32;33720;-89
2021/04/28 16:31:21;;;;;;;18.85;8.40;;;;;;;17.21;44.35;99230.03;4318324;33;34366;-91
2021/04/28 16:33:49;;;;;;;14.60;7.65;;;;;;;17.37;44.34;99218.00;4337598;32;34155;-90
2021/04/28 16:36:19;;;;;;;14.80;7.37;;;;;;;17.29;44.44;99227.62;4335159;32;34931;-89
2021/04/28 16:38:47;;;;;;;15.82;8.52;;;;;;;17.52;44.24;99229.28;4336250;33;33773;-90
2021/04/28 16:41:14;;;;;;;12.88;7.53;;;;;;;17.69;44.24;99227.03;4327926;32;33429;-87
2021/04/28 16:43:41;;;;;;;16.48;8.95;;;;;;;17.87;43.66;99226.38;4333998;33;34407;-88
2021/04/28 16:46:09;;;;;;;13.75;9.93;;;;;;;17.51;45.47;99226.69;4332136;32;34454;-88
2021/04/28 16:48:37;;;;;;;19.27;9.57;;;;;;;17.49;45.84;99229.50;4338661;32;33610;-88
2021/04/28 16:51:04;;;;;;;18.23;10.10;;;;;;;17.57;45.58;99226.22;4352357;32;33988;-87
2021/04/28 16:53:31;;;;;;;24.10;8.98;;;;;;;17.42;46.33;99222.97;4334345;32;34092;-87
2021/04/28 16:55:59;;;;;;;14.18;8.80;;;;;;;17.18;46.88;99235.59;4341402;32;34748;-87
2021/04/28 16:58:26;;;;;;;15.77;9.10;;;;;;;16.85;47.79;99234.62;4339075;32;34110;-87
2021/04/28 17:01:10;;;;;;;15.73;9.25;;;;;;;17.25;47.09;99237.69;4351305;32;33472;-88
2021/04/28 17:03:38;;;;;;;16.33;8.98;;;;;;;16.99;48.18;99239.72;4337530;32;35226;-87
2021/04/28 17:06:06;;;;;;;20.48;9.98;;;;;;;17.09;48.48;99240.72;4351901;32;33338;-87
2021/04/28 17:08:33;;;;;;;16.33;8.15;;;;;;;16.58;49.97;99238.47;4352813;32;33870;-87
2021/04/28 17:11:01;;;;;;;15.07;8.75;;;;;;;16.79;49.33;99232.47;4348207;32;33378;-87
2021/04/28 17:13:28;;;;;;;20.58;9.30;;;;;;;17.42;47.70;99241.63;4336174;32;33903;-87
2021/04/28 17:15:56;;;;;;;19.50;10.07;;;;;;;16.97;49.36;99233.69;4346477;32;33461;-87
2021/04/28 17:18:23;;;;;;;21.35;11.05;;;;;;;16.53;50.87;99239.81;4315036;32;33719;-88
2021/04/28 17:20:50;;;;;;;19.48;11.57;;;;;;;16.43;51.40;99245.00;4348895;32;35344;-87
2021/04/28 17:23:17;;;;;;;21.75;11.57;;;;;;;16.72;50.95;99236.59;4349742;32;32907;-87
2021/04/28 17:25:44;;;;;;;22.90;11.40;;;;;;;16.41;52.27;99251.38;4338950;32;35846;-87
2021/04/28 17:28:11;;;;;;;26.48;11.43;;;;;;;16.28;52.92;99240.81;4336414;33;34367;-88
2021/04/28 17:30:39;;;;;;;21.17;12.05;;;;;;;16.21;53.51;99245.75;4348159;32;35244;-87
2021/04/28 17:33:06;;;;;;;22.92;11.52;;;;;;;16.45;52.88;99247.53;4321649;32;34208;-88
2021/04/28 17:35:33;;;;;;;19.87;11.55;;;;;;;16.15;54.21;99258.72;4349342;32;34343;-88
2021/04/28 17:38:01;;;;;;;21.90;10.73;;;;;;;16.53;53.29;99253.13;4333663;33;33838;-88
2021/04/28 17:43:16;;;;;;;18.08;11.48;;;;;;;16.45;53.41;99253.69;4345927;32;34325;-88
2021/04/28 17:45:43;;;;;;;20.37;12.50;;;;;;;16.65;52.91;99250.34;4329088;32;34310;-88
2021/04/28 17:48:11;;;;;;;23.58;13.02;;;;;;;16.51;53.55;99258.56;4330724;32;34947;-88
2021/04/28 17:50:41;;;;;;;31.50;18.50;;;;;;;16.55;53.52;99261.84;4352216;32;34532;-88
2021/04/28 17:53:09;;;;;;;26.40;16.40;;;;;;;16.71;53.16;99264.16;4345425;32;34290;-87
2021/04/28 17:55:36;;;;;;;22.10;14.90;;;;;;;16.54;53.88;99269.00;4351765;32;32495;-88
2021/04/28 17:58:17;;;;;;;23.00;13.85;;;;;;;16.76;53.41;99262.00;4319251;32;35263;-87
2021/04/28 18:00:47;;;;;;;23.48;14.25;;;;;;;16.55;54.15;99264.50;4328210;32;34602;-88
2021/04/28 18:03:18;;;;;;;23.85;14.50;;;;;;;16.54;54.31;99266.31;4353616;32;33094;-88
2021/04/28 18:05:46;;;;;;;29.48;15.77;;;;;;;16.60;54.32;99273.00;4324818;32;34767;-88
2021/04/28 18:08:13;;;;;;;29.17;14.32;;;;;;;16.29;55.17;99279.81;4351262;32;35990;-88
2021/04/28 18:10:41;;;;;;;27.67;15.93;;;;;;;15.92;56.52;99277.25;4342309;32;32934;-88
2021/04/28 18:13:08;;;;;;;26.62;16.00;;;;;;;15.57;57.98;99280.66;4352271;32;33671;-88
2021/04/28 18:15:35;;;;;;;29.20;16.45;;;;;;;15.95;56.79;99277.03;4355008;32;31789;-88
2021/04/28 18:18:02;;;;;;;29.58;17.67;;;;;;;15.68;57.71;99279.06;4351937;32;34102;-88
2021/04/28 18:20:30;;;;;;;30.10;17.48;;;;;;;15.55;58.24;99279.06;4350859;32;35188;-88
2021/04/28 18:22:57;;;;;;;29.42;16.33;;;;;;;16.01;56.77;99279.22;4345885;32;33702;-88
2021/04/28 18:25:24;;;;;;;27.05;15.85;;;;;;;15.74;57.77;99289.25;4352938;32;34936;-88
2021/04/28 18:27:51;;;;;;;24.70;15.50;;;;;;;16.10;56.45;99283.87;4338638;32;35323;-88
2021/04/28 18:30:19;;;;;;;26.00;15.55;;;;;;;16.10;56.69;99285.69;4343976;32;34272;-87
2021/04/28 18:32:47;;;;;;;27.27;15.82;;;;;;;16.22;56.40;99283.91;4327031;33;34021;-88
2021/04/28 18:35:14;;;;;;;30.08;17.00;;;;;;;16.39;55.71;99286.16;4344605;32;33647;-88
2021/04/28 18:37:44;;;;;;;27.70;17.00;;;;;;;16.02;56.93;99288.91;4343422;32;35305;-87
2021/04/28 18:40:12;;;;;;;22.50;15.73;;;;;;;16.19;56.52;99289.44;4321889;32;34624;-87
2021/04/28 18:42:41;;;;;;;29.80;16.83;;;;;;;16.13;56.68;99288.94;4335867;32;35220;-87
2021/04/28 18:45:10;;;;;;;28.05;16.90;;;;;;;16.43;55.82;99279.63;4339274;32;35014;-86
2021/04/28 18:47:38;;;;;;;31.33;17.80;;;;;;;16.23;56.45;99286.44;4325261;32;35611;-88
2021/04/28 18:50:06;;;;;;;29.80;16.85;;;;;;;16.44;55.73;99283.16;4355183;32;34482;-87
2021/04/28 18:52:34;;;;;;;29.05;16.35;;;;;;;16.46;55.70;99281.19;4339972;32;31946;-87
2021/04/28 18:55:03;;;;;;;26.92;17.40;;;;;;;16.25;56.29;99294.34;4339135;32;33107;-88
2021/04/28 18:57:30;;;;;;;31.27;16.23;;;;;;;16.44;55.83;99294.66;4354402;32;33482;-86
2021/04/28 18:59:57;;;;;;;29.50;17.58;;;;;;;16.57;55.31;99290.09;4352135;32;34178;-86
2021/04/28 19:02:25;;;;;;;31.45;18.77;;;;;;;16.77;54.67;99288.59;4350182;32;33769;-87
2021/04/28 19:04:57;;;;;;;36.67;21.75;;;;;;;16.64;55.22;99293.13;4327616;32;34512;-87
2021/04/28 19:07:25;;;;;;;68.50;36.72;;;;;;;16.10;57.14;99293.69;4360818;32;34642;-87
2021/04/28 19:13:23;;;;;;;43.10;24.02;;;;;;;16.14;57.10;99295.13;4353233;32;34173;-88
2021/04/28 19:15:51;;;;;;;32.85;20.40;;;;;;;16.31;56.52;99293.88;4347537;33;32945;-88
2021/04/28 19:18:18;;;;;;;31.67;18.85;;;;;;;16.13;57.19;99298.75;4349984;32;34775;-87
2021/04/28 19:20:51;;;;;;;30.55;19.10;;;;;;;15.92;58.17;99298.53;4339401;32;33806;-87
2021/04/28 19:23:18;;;;;;;30.02;18.12;;;;;;;15.85;58.41;99303.44;4339226;32;33895;-87
2021/04/28 19:25:45;;;;;;;28.83;16.33;;;;;;;16.24;57.07;99289.97;4349123;32;34685;-87
2021/04/28 19:28:12;;;;;;;33.15;18.73;;;;;;;16.52;56.14;99286.94;4327497;32;33245;-87
2021/04/28 19:30:40;;;;;;;30.48;18.17;;;;;;;16.11;57.67;99293.56;4338571;32;34440;-87
2021/04/28 19:33:07;;;;;;;30.90;17.27;;;;;;;16.29;56.99;99285.16;4337805;33;33550;-87
2021/04/28 19:35:35;;;;;;;29.98;17.30;;;;;;;16.61;55.99;99280.03;4349821;32;33145;-87
2021/04/28 19:38:04;;;;;;;32.58;17.70;;;;;;;16.24;57.24;99285.50;4346655;32;36282;-87
2021/04/28 19:40:31;;;;;;;28.77;17.75;;;;;;;16.25;57.13;99294.34;4342809;32;35664;-87
2021/04/28 19:42:58;;;;;;;27.42;17.30;;;;;;;16.34;56.86;99293.66;4341472;32;33940;-87
2021/04/28 19:45:26;;;;;;;28.30;18.27;;;;;;;16.04;57.83;99289.63;4341709;32;33673;-88
2021/04/28 19:47:53;;;;;;;29.33;18.15;;;;;;;16.12;57.83;99289.91;4337466;32;34626;-88
2021/04/28 19:50:21;;;;;;;27.15;17.17;;;;;;;15.88;58.29;99291.75;4337463;32;35231;-87
2021/04/28 19:52:48;;;;;;;30.17;18.62;;;;;;;16.10;57.67;99291.84;4319755;32;105019;-87
2021/04/28 19:55:16;;;;;;;33.15;17.80;;;;;;;16.05;58.01;99293.16;4318314;32;34637;-87
2021/04/28 19:57:43;;;;;;;28.77;17.80;;;;;;;16.04;57.85;99286.97;4349815;32;33801;-87
2021/04/28 20:00:11;;;;;;;30.12;17.55;;;;;;;16.19;57.43;99290.31;4350589;32;33453;-87
2021/04/28 20:02:40;;;;;;;28.30;18.37;;;;;;;16.35;56.90;99290.84;4333603;32;34113;-88
2021/04/28 20:05:12;;;;;;;29.75;18.70;;;;;;;16.28;57.47;99288.75;4336389;32;34262;-87
2021/04/28 20:07:40;;;;;;;32.05;17.33;;;;;;;16.24;57.58;99292.66;4354665;32;34268;-87
2021/04/28 20:10:08;;;;;;;31.17;18.25;;;;;;;16.40;56.87;99282.53;4353454;32;34426;-87
2021/04/28 20:12:35;;;;;;;30.42;18.37;;;;;;;16.11;57.86;99288.22;4336465;32;33683;-87
2021/04/28 20:15:04;;;;;;;34.33;18.92;;;;;;;16.19;57.90;99289.44;4323047;32;35189;-88
2021/04/28 20:17:31;;;;;;;32.42;19.87;;;;;;;16.28;57.36;99284.28;4352743;32;33777;-87
2021/04/28 20:19:58;;;;;;;31.17;19.85;;;;;;;16.02;58.35;99288.91;4346792;32;33293;-87
2021/04/28 20:22:26;;;;;;;33.03;18.37;;;;;;;15.84;59.00;99285.78;4326438;32;34328;-87
2021/04/28 20:24:53;;;;;;;34.50;18.75;;;;;;;15.92;58.66;99287.91;4352648;32;35469;-87
2021/04/28 20:27:27;;;;;;;30.10;18.60;;;;;;;16.06;58.26;99290.38;4351669;32;34277;-87
2021/04/28 20:29:54;;;;;;;32.90;18.02;;;;;;;16.00;58.54;99288.19;4339657;33;34479;-87
2021/04/28 20:32:21;;;;;;;31.10;17.33;;;;;;;15.76;59.33;99292.63;4340883;32;34228;-88
2021/04/28 20:34:49;;;;;;;31.70;16.98;;;;;;;15.97;58.50;99288.41;4344493;32;34160;-87
2021/04/28 20:37:16;;;;;;;31.23;18.42;;;;;;;15.91;58.67;99290.69;4350808;32;34886;-87
2021/04/28 20:39:43;;;;;;;33.28;17.60;;;;;;;16.19;57.75;99289.44;4351553;32;32572;-87
2021/04/28 20:42:10;;;;;;;29.65;19.40;;;;;;;16.15;57.78;99296.84;4332733;32;33318;-87
2021/04/28 20:44:39;;;;;;;27.87;18.45;;;;;;;15.89;58.76;99290.78;4338867;32;33648;-87
2021/04/28 20:47:06;;;;;;;31.98;18.62;;;;;;;16.09;58.10;99295.50;4340637;32;34675;-87
2021/04/28 20:49:34;;;;;;;31.58;18.80;;;;;;;15.98;58.44;99292.75;4324327;32;34203;-87
2021/04/28 20:52:01;;;;;;;32.90;18.23;;;;;;;16.12;57.88;99295.25;4338470;33;32554;-87
2021/04/28 20:54:29;;;;;;;28.52;18.50;;;;;;;15.70;59.27;99291.28;4328191;33;33634;-87
2021/04/28 20:56:56;;;;;;;32.40;19.08;;;;;;;15.99;58.23;99294.44;4325581;32;34748;-87
2021/04/28 20:59:24;;;;;;;33.33;20.15;;;;;;;15.66;59.44;99296.94;4348575;32;33663;-87
2021/04/28 21:01:51;;;;;;;35.40;19.30;;;;;;;15.19;61.13;99293.16;4354031;32;32944;-87
2021/04/28 21:04:18;;;;;;;27.58;18.62;;;;;;;15.52;60.06;99288.09;4343617;32;34296;-87
2021/04/28 21:06:49;;;;;;;33.03;18.35;;;;;;;15.79;59.26;99287.94;4350541;32;34332;-87
2021/04/28 21:09:16;;;;;;;29.70;18.55;;;;;;;15.86;59.03;99285.69;4354333;32;34859;-87
2021/04/28 21:11:43;;;;;;;32.85;17.62;;;;;;;16.00;58.56;99289.97;4350559;32;33027;-87
2021/04/28 21:14:11;;;;;;;30.17;19.50;;;;;;;16.30;57.70;99292.19;4335984;32;33560;-87
2021/04/28 21:16:38;;;;;;;36.55;21.00;;;;;;;15.99;58.39;99294.44;4335180;32;35431;-87
2021/04/28 21:19:05;;;;;;;31.83;19.85;;;;;;;15.97;58.58;99291.06;4341313;32;35169;-87
2021/04/28 21:21:33;;;;;;;31.75;20.48;;;;;;;15.88;58.92;99292.59;4348421;32;33151;-88
2021/04/28 21:24:00;;;;;;;24.73;17.48;;;;;;;15.50;60.23;99298.00;4335168;33;36241;-87
2021/04/28 21:26:27;;;;;;;30.55;19.95;;;;;;;15.91;58.78;99291.53;4335147;33;33243;-89
2021/04/28 21:28:55;;;;;;;29.85;18.80;;;;;;;15.70;59.47;99293.09;4356557;32;33187;-85
2021/04/28 21:31:22;;;;;;;30.88;19.62;;;;;;;16.00;58.66;99281.97;4354493;32;33409;-85
2021/04/28 21:33:49;;;;;;;29.42;19.90;;;;;;;15.91;58.86;99285.34;4352378;32;34392;-85
2021/04/28 21:36:17;;;;;;;29.42;19.52;;;;;;;15.88;58.87;99281.09;4341716;32;34565;-85
2021/04/28 21:38:45;;;;;;;30.88;18.37;;;;;;;15.78;59.29;99280.91;4339531;32;34707;-85
2021/04/28 21:41:12;;;;;;;31.52;19.42;;;;;;;15.91;58.94;99288.03;4338189;32;33145;-86
2021/04/28 21:43:39;;;;;;;27.48;19.27;;;;;;;15.44;60.39;99287.81;4347345;33;34376;-85
2021/04/28 21:46:07;;;;;;;32.88;18.73;;;;;;;15.41;60.59;99285.37;4348557;32;35019;-85
2021/04/28 21:48:35;;;;;;;29.92;19.33;;;;;;;15.21;61.50;99283.28;4342317;32;35506;-85
2021/04/28 21:51:21;;;;;;;31.67;20.50;;;;;;;15.39;60.82;99281.97;4346162;32;34159;-85
2021/04/28 21:53:48;;;;;;;31.33;19.98;;;;;;;15.33;61.23;99282.41;4349769;32;33625;-85
2021/04/28 21:56:16;;;;;;;30.17;19.50;;;;;;;15.67;60.08;99288.00;4346552;32;33800;-84
2021/04/28 21:58:44;;;;;;;26.50;18.55;;;;;;;15.59;60.30;99285.84;4335765;32;34183;-85
2021/04/28 22:01:11;;;;;;;29.63;19.33;;;;;;;15.61;60.11;99276.78;4348592;32;33756;-85
2021/04/28 22:03:39;;;;;;;29.37;19.20;;;;;;;15.45;60.97;99278.88;4337247;32;34217;-85
2021/04/28 22:06:07;;;;;;;30.23;19.45;;;;;;;15.66;60.08;99280.97;4351603;32;33639;-84
2021/04/28 22:08:34;;;;;;;31.52;20.23;;;;;;;15.64;60.20;99283.75;4343090;32;34536;-84
2021/04/28 22:11:02;;;;;;;29.95;19.67;;;;;;;15.59;60.41;99285.84;4341885;32;32795;-84
2021/04/28 22:13:29;;;;;;;30.42;20.35;;;;;;;15.66;nan;99275.63;4355448;32;33392;-84
2021/04/28 22:15:56;;;;;;;29.58;19.12;;;;;;;15.57;60.59;99277.13;4345995;32;34447;-84